sensor_id;sensor_type;location;lat;lon;timestamp;P1;durP1;ratioP1;P2;durP2;ratioP2
13204;SDS011;6667;52.634;9.226;2024-02-04T09:45:55;5.67;;;2.20;;
13204;SDS011;6667;52.634;9.226;2024-02-04T09:48:24;4.97;;;2.53;;
13204;SDS011;6667;52.634;9.226;2024-02-04T09:50:53;8.70;;;2.30;;
13204;SDS011;6667;52.634;9.226;2024-02-04T09:53:21;4.87;;;2.43;;
13204;SDS011;6667;52.634;9.226;2024-02-04T09:55:58;8.43;;;2.27;;
13204;SDS011;6667;52.634;9.226;2024-02-04T09:58:27;5.30;;;2.47;;
13204;SDS011;6667;52.634;9.226;2024-02-04T10:00:56;8.13;;;1.90;;
13204;SDS011;6667;52.634;9.226;2024-02-04T10:03:25;5.97;;;2.67;;
13204;SDS011;6667;52.634;9.226;2024-02-04T10:05:53;6.87;;;1.83;;
13204;SDS011;6667;52.634;9.226;2024-02-04T10:08:20;7.03;;;2.30;;
13204;SDS011;6667;52.634;9.226;2024-02-04T10:10:47;7.30;;;2.30;;
13204;SDS011;6667;52.634;9.226;2024-02-04T10:13:15;9.53;;;2.03;;
13204;SDS011;6667;52.634;9.226;2024-02-04T10:15:42;10.93;;;3.77;;
13204;SDS011;6667;52.634;9.226;2024-02-04T10:18:11;12.80;;;3.23;;
13204;SDS011;6667;52.634;9.226;2024-02-04T10:20:38;10.40;;;2.60;;
13204;SDS011;6667;52.634;9.226;2024-02-04T10:23:05;6.53;;;2.30;;
13204;SDS011;6667;52.634;9.226;2024-02-04T10:25:33;5.80;;;2.10;;
13204;SDS011;6667;52.634;9.226;2024-02-04T10:28:00;6.67;;;2.37;;
13204;SDS011;6667;52.634;9.226;2024-02-04T10:30:28;9.40;;;2.70;;
13204;SDS011;6667;52.634;9.226;2024-02-04T10:32:55;10.07;;;3.47;;
13204;SDS011;6667;52.634;9.226;2024-02-04T10:35:24;5.63;;;2.50;;
13204;SDS011;6667;52.634;9.226;2024-02-04T10:37:54;7.27;;;2.70;;
13204;SDS011;6667;52.634;9.226;2024-02-04T10:40:21;9.30;;;2.43;;
13204;SDS011;6667;52.634;9.226;2024-02-04T10:42:50;7.97;;;2.70;;
13204;SDS011;6667;52.634;9.226;2024-02-04T10:45:21;4.90;;;2.30;;
13204;SDS011;6667;52.634;9.226;2024-02-04T10:50:54;9.77;;;2.80;;
13204;SDS011;6667;52.634;9.226;2024-02-04T10:53:37;7.73;;;3.00;;
13204;SDS011;6667;52.634;9.226;2024-02-04T10:56:08;9.20;;;3.00;;
13204;SDS011;6667;52.634;9.226;2024-02-04T10:58:42;6.13;;;2.67;;
13204;SDS011;6667;52.634;9.226;2024-02-04T11:01:45;9.40;;;2.60;;
13204;SDS011;6667;52.634;9.226;2024-02-04T11:04:34;5.30;;;2.57;;
13204;SDS011;6667;52.634;9.226;2024-02-04T11:07:09;7.67;;;3.23;;
13204;SDS011;6667;52.634;9.226;2024-02-04T11:09:41;12.07;;;3.13;;
13204;SDS011;6667;52.634;9.226;2024-02-04T11:12:20;11.07;;;3.77;;
13204;SDS011;6667;52.634;9.226;2024-02-04T11:14:51;7.37;;;2.97;;
13204;SDS011;6667;52.634;9.226;2024-02-04T11:20:50;8.77;;;3.10;;
13204;SDS011;6667;52.634;9.226;2024-02-04T11:27:03;4.33;;;2.87;;
13204;SDS011;6667;52.634;9.226;2024-02-04T11:29:42;8.73;;;2.97;;
13204;SDS011;6667;52.634;9.226;2024-02-04T11:39:49;6.90;;;2.90;;
13204;SDS011;6667;52.634;9.226;2024-02-04T11:42:24;7.20;;;3.40;;
13204;SDS011;6667;52.634;9.226;2024-02-04T12:59:24;3.53;;;1.60;;
13204;SDS011;6667;52.634;9.226;2024-02-04T13:01:59;3.20;;;1.70;;
13204;SDS011;6667;52.634;9.226;2024-02-04T13:04:54;9.30;;;2.53;;
13204;SDS011;6667;52.634;9.226;2024-02-04T13:07:28;5.00;;;1.77;;
13204;SDS011;6667;52.634;9.226;2024-02-04T13:52:03;5.60;;;2.70;;
13204;SDS011;6667;52.634;9.226;2024-02-04T13:54:30;3.13;;;1.47;;
13204;SDS011;6667;52.634;9.226;2024-02-04T13:57:03;3.90;;;1.50;;
13204;SDS011;6667;52.634;9.226;2024-02-04T13:59:31;2.33;;;1.37;;
13204;SDS011;6667;52.634;9.226;2024-02-04T14:01:58;5.10;;;1.73;;
13204;SDS011;6667;52.634;9.226;2024-02-04T14:04:28;2.63;;;1.70;;
13204;SDS011;6667;52.634;9.226;2024-02-04T14:06:56;4.43;;;1.30;;
13204;SDS011;6667;52.634;9.226;2024-02-04T14:09:24;3.23;;;1.83;;
13204;SDS011;6667;52.634;9.226;2024-02-04T14:11:51;2.20;;;1.60;;
13204;SDS011;6667;52.634;9.226;2024-02-04T14:14:19;3.67;;;1.53;;
13204;SDS011;6667;52.634;9.226;2024-02-04T14:16:47;5.63;;;1.70;;
13204;SDS011;6667;52.634;9.226;2024-02-04T14:19:14;5.50;;;1.50;;
13204;SDS011;6667;52.634;9.226;2024-02-04T14:21:43;4.33;;;1.30;;
13204;SDS011;6667;52.634;9.226;2024-02-04T14:24:10;7.90;;;2.20;;
13204;SDS011;6667;52.634;9.226;2024-02-04T14:26:38;6.40;;;1.87;;
13204;SDS011;6667;52.634;9.226;2024-02-04T14:29:06;4.83;;;1.77;;
13204;SDS011;6667;52.634;9.226;2024-02-04T14:31:34;1.87;;;1.70;;
13204;SDS011;6667;52.634;9.226;2024-02-04T14:34:01;3.57;;;1.63;;
13204;SDS011;6667;52.634;9.226;2024-02-04T14:36:28;2.67;;;1.23;;
13204;SDS011;6667;52.634;9.226;2024-02-04T14:38:57;5.30;;;2.00;;
13204;SDS011;6667;52.634;9.226;2024-02-04T14:41:26;5.37;;;1.57;;
13204;SDS011;6667;52.634;9.226;2024-02-04T14:43:53;3.63;;;1.53;;
13204;SDS011;6667;52.634;9.226;2024-02-04T14:46:21;2.70;;;1.53;;
13204;SDS011;6667;52.634;9.226;2024-02-04T14:48:48;4.00;;;1.70;;
13204;SDS011;6667;52.634;9.226;2024-02-04T14:51:17;4.83;;;2.10;;
13204;SDS011;6667;52.634;9.226;2024-02-04T14:53:44;4.33;;;1.90;;
13204;SDS011;6667;52.634;9.226;2024-02-04T14:56:13;6.50;;;1.90;;
13204;SDS011;6667;52.634;9.226;2024-02-04T14:58:41;2.90;;;1.67;;
13204;SDS011;6667;52.634;9.226;2024-02-04T15:01:09;3.40;;;1.80;;
13204;SDS011;6667;52.634;9.226;2024-02-04T15:03:36;3.07;;;2.10;;
13204;SDS011;6667;52.634;9.226;2024-02-04T15:06:03;3.60;;;1.90;;
13204;SDS011;6667;52.634;9.226;2024-02-04T15:08:31;3.37;;;1.73;;
13204;SDS011;6667;52.634;9.226;2024-02-04T15:10:58;2.17;;;1.80;;
13204;SDS011;6667;52.634;9.226;2024-02-04T15:13:27;3.57;;;2.20;;
13204;SDS011;6667;52.634;9.226;2024-02-04T15:15:55;3.00;;;2.13;;
13204;SDS011;6667;52.634;9.226;2024-02-04T16:07:23;3.73;;;1.50;;
13204;SDS011;6667;52.634;9.226;2024-02-04T16:13:43;4.60;;;1.73;;
13204;SDS011;6667;52.634;9.226;2024-02-04T17:08:24;3.03;;;1.70;;
13204;SDS011;6667;52.634;9.226;2024-02-04T17:11:02;2.97;;;1.60;;
13204;SDS011;6667;52.634;9.226;2024-02-04T17:17:05;5.07;;;2.30;;
13204;SDS011;6667;52.634;9.226;2024-02-04T17:25:23;4.97;;;1.77;;
13204;SDS011;6667;52.634;9.226;2024-02-04T17:27:59;3.30;;;1.80;;
13204;SDS011;6667;52.634;9.226;2024-02-04T17:30:46;3.83;;;1.93;;
13204;SDS011;6667;52.634;9.226;2024-02-04T17:34:38;6.77;;;2.70;;
13204;SDS011;6667;52.634;9.226;2024-02-04T17:39:47;3.30;;;2.50;;
13204;SDS011;6667;52.634;9.226;2024-02-04T17:42:36;5.43;;;2.67;;
13204;SDS011;6667;52.634;9.226;2024-02-04T17:45:05;6.17;;;3.00;;
13204;SDS011;6667;52.634;9.226;2024-02-04T17:47:35;3.33;;;2.67;;
13204;SDS011;6667;52.634;9.226;2024-02-04T17:50:19;6.60;;;3.90;;
13204;SDS011;6667;52.634;9.226;2024-02-04T17:52:47;6.20;;;3.80;;
13204;SDS011;6667;52.634;9.226;2024-02-04T17:58:07;6.43;;;3.80;;
13204;SDS011;6667;52.634;9.226;2024-02-04T18:00:34;5.10;;;3.90;;
13204;SDS011;6667;52.634;9.226;2024-02-04T18:17:12;5.20;;;3.27;;
13204;SDS011;6667;52.634;9.226;2024-02-04T18:19:43;6.40;;;2.93;;
13204;SDS011;6667;52.634;9.226;2024-02-04T18:22:21;5.30;;;3.70;;
13204;SDS011;6667;52.634;9.226;2024-02-04T18:25:45;4.47;;;3.27;;
13204;SDS011;6667;52.634;9.226;2024-02-04T18:35:27;7.13;;;3.80;;
13204;SDS011;6667;52.634;9.226;2024-02-04T18:40:57;4.00;;;3.17;;
13204;SDS011;6667;52.634;9.226;2024-02-04T18:43:29;3.87;;;3.30;;
13204;SDS011;6667;52.634;9.226;2024-02-04T18:46:04;3.87;;;3.40;;
13204;SDS011;6667;52.634;9.226;2024-02-04T19:06:24;6.97;;;4.80;;
13204;SDS011;6667;52.634;9.226;2024-02-04T19:15:54;4.97;;;4.13;;
13204;SDS011;6667;52.634;9.226;2024-02-04T19:25:24;4.63;;;3.50;;
13204;SDS011;6667;52.634;9.226;2024-02-04T19:28:09;3.53;;;3.07;;
13204;SDS011;6667;52.634;9.226;2024-02-04T19:37:13;3.80;;;3.30;;
13204;SDS011;6667;52.634;9.226;2024-02-04T19:47:13;4.10;;;3.20;;
13204;SDS011;6667;52.634;9.226;2024-02-04T19:57:09;4.43;;;3.47;;
13204;SDS011;6667;52.634;9.226;2024-02-04T19:59:38;4.07;;;3.53;;
13204;SDS011;6667;52.634;9.226;2024-02-04T20:02:04;4.87;;;3.70;;
13204;SDS011;6667;52.634;9.226;2024-02-04T20:04:32;5.30;;;3.13;;
13204;SDS011;6667;52.634;9.226;2024-02-04T20:06:59;4.93;;;3.50;;
13204;SDS011;6667;52.634;9.226;2024-02-04T20:09:28;4.93;;;3.77;;
13204;SDS011;6667;52.634;9.226;2024-02-04T20:11:55;5.20;;;3.83;;
13204;SDS011;6667;52.634;9.226;2024-02-04T20:14:26;4.87;;;3.83;;
13204;SDS011;6667;52.634;9.226;2024-02-04T20:16:53;4.90;;;3.77;;
13204;SDS011;6667;52.634;9.226;2024-02-04T20:19:21;5.43;;;4.10;;
13204;SDS011;6667;52.634;9.226;2024-02-04T20:21:48;6.17;;;4.50;;
13204;SDS011;6667;52.634;9.226;2024-02-04T20:24:16;8.63;;;5.20;;
13204;SDS011;6667;52.634;9.226;2024-02-04T20:26:43;7.67;;;5.27;;
13204;SDS011;6667;52.634;9.226;2024-02-04T20:29:10;6.13;;;4.77;;
13204;SDS011;6667;52.634;9.226;2024-02-04T20:31:38;6.60;;;5.10;;
13204;SDS011;6667;52.634;9.226;2024-02-04T20:37:05;8.23;;;5.47;;
13204;SDS011;6667;52.634;9.226;2024-02-04T20:39:32;9.10;;;6.67;;
13204;SDS011;6667;52.634;9.226;2024-02-04T20:41:59;9.50;;;6.83;;
13204;SDS011;6667;52.634;9.226;2024-02-04T20:44:26;10.00;;;6.43;;
13204;SDS011;6667;52.634;9.226;2024-02-04T20:46:54;9.30;;;6.10;;
13204;SDS011;6667;52.634;9.226;2024-02-04T20:49:21;10.30;;;6.53;;
13204;SDS011;6667;52.634;9.226;2024-02-04T20:51:48;8.50;;;6.73;;
13204;SDS011;6667;52.634;9.226;2024-02-04T20:54:16;9.00;;;7.07;;
13204;SDS011;6667;52.634;9.226;2024-02-04T20:56:43;10.40;;;6.13;;
13204;SDS011;6667;52.634;9.226;2024-02-04T20:59:11;10.63;;;6.77;;
13204;SDS011;6667;52.634;9.226;2024-02-04T21:01:41;8.50;;;5.07;;
13204;SDS011;6667;52.634;9.226;2024-02-04T21:04:10;10.33;;;5.90;;
13204;SDS011;6667;52.634;9.226;2024-02-04T21:06:37;11.13;;;6.27;;
13204;SDS011;6667;52.634;9.226;2024-02-04T21:09:04;9.73;;;5.73;;
13204;SDS011;6667;52.634;9.226;2024-02-04T21:11:34;12.33;;;6.60;;
13204;SDS011;6667;52.634;9.226;2024-02-04T21:14:02;8.97;;;4.97;;
13204;SDS011;6667;52.634;9.226;2024-02-04T21:16:40;8.20;;;5.50;;
13204;SDS011;6667;52.634;9.226;2024-02-04T21:19:08;9.70;;;6.17;;
13204;SDS011;6667;52.634;9.226;2024-02-04T21:21:37;11.27;;;5.33;;
13204;SDS011;6667;52.634;9.226;2024-02-04T21:24:13;12.13;;;6.20;;
13204;SDS011;6667;52.634;9.226;2024-02-04T21:26:41;11.07;;;5.77;;
13204;SDS011;6667;52.634;9.226;2024-02-04T21:29:08;9.30;;;6.20;;
13204;SDS011;6667;52.634;9.226;2024-02-04T21:31:38;8.53;;;6.33;;
13204;SDS011;6667;52.634;9.226;2024-02-04T21:34:06;9.03;;;6.17;;
13204;SDS011;6667;52.634;9.226;2024-02-04T21:36:37;9.47;;;5.90;;
13204;SDS011;6667;52.634;9.226;2024-02-04T21:45:48;8.73;;;6.33;;
13204;SDS011;6667;52.634;9.226;2024-02-04T21:48:32;8.83;;;6.43;;
13204;SDS011;6667;52.634;9.226;2024-02-04T21:54:23;9.43;;;5.03;;
